createdAt,value
2022-12-14T00:00:01.328Z,5.50
2022-12-14T00:01:33.280Z,5.20
2022-12-14T00:03:05.048Z,5.60
2022-12-14T00:04:36.756Z,6.23
2022-12-14T00:06:14.275Z,5.00
2022-12-14T00:07:46.093Z,5.60
2022-12-14T00:09:20.699Z,5.53
2022-12-14T00:10:53.887Z,6.20
2022-12-14T00:12:25.548Z,5.67
2022-12-14T00:13:59.243Z,5.40
2022-12-14T00:15:31.252Z,5.07
2022-12-14T00:17:02.968Z,5.70
2022-12-14T00:18:34.792Z,5.63
2022-12-14T00:20:06.833Z,5.50
2022-12-14T00:21:38.483Z,5.20
2022-12-14T00:23:10.947Z,4.90
2022-12-14T00:24:42.560Z,6.13
2022-12-14T00:26:26.271Z,5.20
2022-12-14T00:27:58.636Z,5.53
2022-12-14T00:29:30.301Z,4.97
2022-12-14T00:31:02.001Z,5.27
2022-12-14T00:32:34.343Z,5.30
2022-12-14T00:34:06.024Z,6.10
2022-12-14T00:35:37.764Z,5.03
2022-12-14T00:37:09.467Z,5.20
2022-12-14T00:38:42.019Z,5.27
2022-12-14T00:40:13.804Z,5.80
2022-12-14T00:41:45.432Z,5.47
2022-12-14T00:43:17.147Z,5.33
2022-12-14T00:44:48.736Z,4.90
2022-12-14T00:46:20.585Z,5.33
2022-12-14T00:47:52.270Z,5.20
2022-12-14T00:49:24.130Z,4.80
2022-12-14T00:50:56.722Z,5.10
2022-12-14T00:52:28.389Z,5.00
2022-12-14T00:54:00.065Z,5.47
2022-12-14T00:55:36.989Z,5.90
2022-12-14T00:57:09.249Z,5.80
2022-12-14T00:58:41.553Z,5.50
2022-12-14T01:00:13.684Z,4.93
2022-12-14T01:01:45.717Z,5.07
2022-12-14T01:03:20.716Z,5.57
2022-12-14T01:04:52.405Z,5.33
2022-12-14T01:06:24.030Z,5.13
2022-12-14T01:07:56.000Z,5.33
2022-12-14T01:09:27.696Z,5.27
2022-12-14T01:10:59.300Z,4.83
2022-12-14T01:12:31.012Z,5.10
2022-12-14T01:14:02.886Z,5.70
2022-12-14T01:15:35.822Z,5.30
2022-12-14T01:17:07.500Z,4.70
2022-12-14T01:18:41.257Z,5.47
2022-12-14T01:20:13.226Z,5.00
2022-12-14T01:21:44.898Z,4.80
2022-12-14T01:23:16.540Z,4.93
2022-12-14T01:24:48.158Z,5.57
2022-12-14T01:26:21.002Z,5.40
2022-12-14T01:27:52.856Z,5.00
2022-12-14T01:29:24.832Z,5.27
2022-12-14T01:30:56.475Z,4.27
2022-12-14T01:32:28.167Z,5.50
2022-12-14T01:34:00.178Z,4.70
2022-12-14T01:35:33.710Z,4.67
2022-12-14T01:37:05.358Z,4.77
2022-12-14T01:38:37.361Z,4.80
2022-12-14T01:40:09.454Z,4.10
2022-12-14T01:41:43.545Z,5.50
2022-12-14T01:43:15.189Z,4.80
2022-12-14T01:44:53.478Z,5.30
2022-12-14T01:46:28.443Z,5.50
2022-12-14T01:48:02.990Z,5.23
2022-12-14T01:49:52.269Z,5.17
2022-12-14T01:51:25.645Z,4.73
2022-12-14T01:53:13.462Z,4.53
2022-12-14T01:55:07.001Z,4.47
2022-12-14T01:56:42.599Z,4.90
2022-12-14T01:58:22.584Z,4.40
2022-12-14T01:59:55.931Z,4.80
2022-12-14T02:01:27.706Z,4.73
2022-12-14T02:03:05.834Z,4.73
2022-12-14T02:04:42.758Z,4.70
2022-12-14T02:06:19.403Z,4.27
2022-12-14T02:07:53.045Z,4.43
2022-12-14T02:09:29.795Z,4.77
2022-12-14T02:11:02.673Z,4.47
2022-12-14T02:12:42.765Z,4.37
2022-12-14T02:14:14.505Z,4.00
2022-12-14T02:15:46.670Z,4.50
2022-12-14T02:17:20.424Z,4.80
2022-12-14T02:18:52.059Z,4.30
2022-12-14T02:20:28.542Z,4.60
2022-12-14T02:22:18.530Z,4.50
2022-12-14T02:24:28.190Z,4.37
2022-12-14T02:26:18.631Z,4.03
2022-12-14T02:28:09.918Z,3.80
2022-12-14T02:30:00.179Z,4.40
2022-12-14T02:31:56.082Z,4.67
2022-12-14T02:33:39.724Z,4.10
2022-12-14T02:35:23.756Z,4.93
2022-12-14T02:37:14.507Z,4.33
2022-12-14T02:38:52.095Z,4.07
2022-12-14T02:40:41.439Z,4.63
2022-12-14T02:42:19.803Z,4.30
2022-12-14T02:44:18.901Z,4.20
2022-12-14T02:45:55.422Z,4.23
2022-12-14T02:47:54.526Z,4.47
2022-12-14T02:49:38.546Z,4.30
2022-12-14T02:51:16.282Z,4.60
2022-12-14T02:53:27.361Z,4.73
2022-12-14T02:55:08.370Z,4.33
2022-12-14T02:56:47.555Z,4.27
2022-12-14T02:58:50.514Z,4.37
2022-12-14T03:00:23.475Z,4.07
2022-12-14T03:01:56.699Z,4.63
2022-12-14T03:03:29.051Z,4.60
2022-12-14T03:05:02.155Z,4.87
2022-12-14T03:06:33.784Z,4.07
2022-12-14T03:08:16.728Z,4.80
2022-12-14T03:09:48.351Z,4.20
2022-12-14T03:11:23.844Z,4.23
2022-12-14T03:13:05.265Z,4.03
2022-12-14T03:14:51.747Z,4.20
2022-12-14T03:16:37.783Z,4.80
2022-12-14T03:18:13.527Z,3.93
2022-12-14T03:19:52.707Z,4.07
2022-12-14T03:21:31.118Z,4.77
2022-12-14T03:23:17.647Z,4.30
2022-12-14T03:24:57.907Z,4.33
2022-12-14T03:26:45.650Z,3.67
2022-12-14T03:28:28.468Z,3.97
2022-12-14T03:30:06.028Z,4.40
2022-12-14T03:31:49.005Z,4.33
2022-12-14T03:33:24.284Z,4.70
2022-12-14T03:35:29.332Z,4.43
2022-12-14T03:37:27.509Z,4.13
2022-12-14T03:39:02.965Z,4.00
2022-12-14T03:40:41.721Z,4.47
2022-12-14T03:42:15.970Z,4.40
2022-12-14T03:44:03.388Z,4.40
2022-12-14T03:45:55.861Z,4.00
2022-12-14T03:47:46.048Z,4.60
2022-12-14T03:49:43.336Z,4.40
2022-12-14T03:51:53.220Z,4.40
2022-12-14T03:53:41.831Z,4.23
2022-12-14T03:55:22.423Z,4.90
2022-12-14T03:57:12.457Z,4.80
2022-12-14T03:58:57.125Z,4.70
2022-12-14T04:00:32.696Z,4.40
2022-12-14T04:02:13.390Z,4.67
2022-12-14T04:03:56.784Z,4.37
2022-12-14T04:05:49.261Z,4.93
2022-12-14T04:07:28.927Z,4.80
2022-12-14T04:09:10.853Z,4.80
2022-12-14T04:11:07.264Z,5.07
2022-12-14T04:12:59.314Z,4.80
2022-12-14T04:14:54.875Z,4.93
2022-12-14T04:16:50.908Z,5.00
2022-12-14T04:18:52.109Z,5.20
2022-12-14T04:20:36.285Z,4.53
2022-12-14T04:22:14.325Z,5.23
2022-12-14T04:24:14.685Z,4.80
2022-12-14T04:26:05.680Z,5.03
2022-12-14T04:27:55.983Z,5.30
2022-12-14T04:29:56.522Z,5.20
2022-12-14T04:31:30.785Z,5.17
2022-12-14T04:33:26.645Z,5.20
2022-12-14T04:35:22.295Z,5.70
2022-12-14T04:36:58.527Z,5.30
2022-12-14T04:38:36.240Z,5.97
2022-12-14T04:40:12.569Z,5.77
2022-12-14T04:41:50.077Z,5.70
2022-12-14T04:43:26.892Z,5.73
2022-12-14T04:45:30.326Z,6.20
2022-12-14T04:47:03.865Z,5.90
2022-12-14T04:48:44.989Z,5.87
2022-12-14T04:50:36.118Z,5.80
2022-12-14T04:52:21.276Z,5.80
2022-12-14T04:53:58.583Z,5.30
2022-12-14T04:55:43.325Z,5.67
2022-12-14T04:57:26.273Z,6.00
2022-12-14T04:58:58.360Z,5.87
2022-12-14T05:00:34.595Z,5.90
2022-12-14T05:02:22.481Z,6.30
2022-12-14T05:04:02.995Z,6.40
2022-12-14T05:05:50.132Z,6.17
2022-12-14T05:07:49.015Z,6.10
2022-12-14T05:09:32.516Z,6.10
2022-12-14T05:11:51.958Z,5.87
2022-12-14T05:13:23.512Z,5.87
2022-12-14T05:15:04.102Z,5.40
2022-12-14T05:16:37.039Z,6.47
2022-12-14T05:18:08.828Z,6.43
2022-12-14T05:19:50.595Z,6.20
2022-12-14T05:21:40.944Z,6.87
2022-12-14T05:23:12.920Z,5.87
2022-12-14T05:24:44.527Z,6.30
2022-12-14T05:26:16.146Z,6.40
2022-12-14T05:27:47.733Z,6.97
2022-12-14T05:29:19.376Z,6.87
2022-12-14T05:30:51.761Z,6.20
2022-12-14T05:32:25.085Z,6.20
2022-12-14T05:33:56.699Z,6.43
2022-12-14T05:35:28.401Z,6.60
2022-12-14T05:37:00.006Z,6.43
2022-12-14T05:38:31.682Z,6.50
2022-12-14T05:40:03.909Z,5.80
2022-12-14T05:41:35.573Z,7.33
2022-12-14T05:43:12.150Z,6.13
2022-12-14T05:44:43.783Z,6.23
2022-12-14T05:46:15.520Z,6.20
2022-12-14T05:47:47.202Z,5.60
2022-12-14T05:49:18.841Z,6.87
2022-12-14T05:50:51.546Z,6.77
2022-12-14T05:52:26.654Z,6.23
2022-12-14T05:53:58.914Z,6.70
2022-12-14T05:55:30.550Z,6.60
2022-12-14T05:57:02.172Z,6.23
2022-12-14T05:58:34.622Z,6.37
2022-12-14T06:00:06.858Z,5.50
2022-12-14T06:01:38.548Z,5.40
2022-12-14T06:03:10.300Z,6.20
2022-12-14T06:04:42.018Z,5.70
2022-12-14T06:06:14.008Z,5.90
2022-12-14T06:07:45.600Z,6.70
2022-12-14T06:09:17.835Z,5.50
2022-12-14T06:10:49.452Z,6.70
2022-12-14T06:12:21.160Z,6.27
2022-12-14T06:13:52.885Z,5.67
2022-12-14T06:15:27.201Z,6.30
2022-12-14T06:17:01.126Z,6.30
2022-12-14T06:18:32.708Z,5.97
2022-12-14T06:20:04.797Z,5.80
2022-12-14T06:21:38.285Z,5.43
2022-12-14T06:23:09.906Z,5.80
2022-12-14T06:24:41.541Z,6.40
2022-12-14T06:26:14.000Z,6.07
2022-12-14T06:27:45.607Z,6.77
2022-12-14T06:29:19.226Z,5.40
2022-12-14T06:30:50.863Z,6.10
2022-12-14T06:32:22.815Z,5.40
2022-12-14T06:33:55.128Z,5.70
2022-12-14T06:35:26.786Z,5.80
2022-12-14T06:36:58.577Z,5.70
2022-12-14T06:38:30.379Z,5.80
2022-12-14T06:40:02.101Z,5.50
2022-12-14T06:41:33.933Z,5.57
2022-12-14T06:43:06.074Z,6.27
2022-12-14T06:44:37.699Z,6.07
2022-12-14T06:46:15.157Z,5.87
2022-12-14T06:47:47.297Z,6.40
2022-12-14T06:49:19.685Z,5.30
2022-12-14T06:50:51.992Z,5.97
2022-12-14T06:52:26.973Z,6.30
2022-12-14T06:53:59.185Z,5.57
2022-12-14T06:55:31.066Z,5.77
2022-12-14T06:57:02.994Z,5.60
2022-12-14T06:58:35.450Z,5.90
2022-12-14T07:00:07.995Z,5.50
2022-12-14T07:01:40.669Z,6.20
2022-12-14T07:03:12.497Z,5.77
2022-12-14T07:04:44.212Z,6.50
2022-12-14T07:06:15.867Z,5.83
2022-12-14T07:07:47.563Z,6.03
2022-12-14T07:09:20.759Z,5.93
2022-12-14T07:10:57.515Z,6.33
2022-12-14T07:12:32.274Z,5.50
2022-12-14T07:14:06.056Z,5.13
2022-12-14T07:15:37.705Z,5.30
2022-12-14T07:17:09.349Z,5.70
2022-12-14T07:18:41.008Z,5.50
2022-12-14T07:20:13.905Z,5.83
2022-12-14T07:21:47.043Z,5.57
2022-12-14T07:23:20.327Z,6.00
2022-12-14T07:24:55.215Z,6.07
2022-12-14T07:26:27.829Z,6.30
2022-12-14T07:27:59.501Z,6.03
2022-12-14T07:29:34.819Z,6.10
2022-12-14T07:31:18.810Z,6.13
2022-12-14T07:32:50.471Z,6.00
2022-12-14T07:34:22.292Z,6.10
2022-12-14T07:36:15.689Z,5.50
2022-12-14T07:37:49.527Z,6.10
2022-12-14T07:39:22.251Z,5.67
2022-12-14T07:40:53.990Z,6.10
2022-12-14T07:42:25.613Z,6.27
2022-12-14T07:43:59.505Z,6.00
2022-12-14T07:45:31.209Z,5.47
2022-12-14T07:47:02.894Z,6.13
2022-12-14T07:48:35.596Z,5.87
2022-12-14T07:50:07.862Z,6.23
2022-12-14T07:51:44.217Z,6.57
2022-12-14T07:53:15.880Z,5.43
2022-12-14T07:54:48.437Z,5.80
2022-12-14T07:56:26.170Z,6.20
2022-12-14T07:57:57.816Z,5.83
2022-12-14T07:59:29.433Z,6.73
2022-12-14T08:01:13.498Z,6.80
2022-12-14T08:02:45.803Z,6.23
2022-12-14T08:04:29.307Z,6.20
2022-12-14T08:06:05.446Z,6.00
2022-12-14T08:07:40.945Z,6.87
2022-12-14T08:09:13.661Z,6.30
2022-12-14T08:10:49.518Z,6.97
2022-12-14T08:12:21.578Z,6.50
2022-12-14T08:14:01.640Z,6.60
2022-12-14T08:15:38.087Z,6.57
2022-12-14T08:17:13.446Z,7.17
2022-12-14T08:18:47.760Z,6.43
2022-12-14T08:20:21.149Z,6.10
2022-12-14T08:21:59.297Z,6.20
2022-12-14T08:23:33.195Z,6.60
2022-12-14T08:25:06.712Z,6.33
2022-12-14T08:26:41.702Z,6.10
2022-12-14T08:28:14.455Z,6.40
2022-12-14T08:29:46.244Z,7.00
2022-12-14T08:31:21.136Z,6.50
2022-12-14T08:32:53.023Z,6.43
2022-12-14T08:34:25.956Z,6.83
2022-12-14T08:36:08.631Z,6.70
2022-12-14T08:37:47.526Z,6.67
2022-12-14T08:39:22.470Z,6.03
2022-12-14T08:40:54.457Z,6.57
2022-12-14T08:42:26.474Z,6.67
2022-12-14T08:44:01.846Z,5.77
2022-12-14T08:45:37.127Z,6.43
2022-12-14T08:47:09.574Z,6.83
2022-12-14T08:48:49.217Z,6.50
2022-12-14T08:50:21.820Z,6.60
2022-12-14T08:51:53.624Z,5.50
2022-12-14T08:53:28.534Z,6.43
2022-12-14T08:55:01.463Z,5.90
2022-12-14T08:56:34.235Z,6.00
2022-12-14T08:58:08.922Z,5.77
2022-12-14T09:01:37.456Z,6.07
2022-12-14T09:03:09.591Z,6.10
2022-12-14T09:04:44.650Z,5.97
2022-12-14T09:06:21.133Z,6.00
2022-12-14T09:07:56.199Z,5.80
2022-12-14T09:09:28.291Z,5.10
2022-12-14T09:11:01.329Z,5.97
2022-12-14T09:12:33.266Z,5.73
2022-12-14T09:14:07.706Z,5.93
2022-12-14T09:15:40.045Z,5.30
2022-12-14T09:17:12.728Z,5.90
2022-12-14T09:18:46.824Z,5.90
2022-12-14T09:20:19.347Z,5.57
2022-12-14T09:21:51.741Z,6.00
2022-12-14T09:23:25.606Z,5.80
2022-12-14T09:25:01.231Z,6.83
2022-12-14T09:26:36.202Z,5.90
2022-12-14T09:28:08.847Z,6.20
2022-12-14T09:29:44.183Z,6.47
2022-12-14T09:31:21.863Z,5.53
2022-12-14T09:32:53.784Z,5.97
2022-12-14T09:34:26.204Z,6.20
2022-12-14T09:36:11.366Z,5.50
2022-12-14T09:37:43.453Z,5.43
2022-12-14T09:39:15.759Z,4.87
2022-12-14T09:40:59.626Z,5.83
2022-12-14T09:42:40.535Z,6.40
2022-12-14T09:44:46.307Z,5.93
2022-12-14T09:46:39.269Z,5.43
2022-12-14T09:48:20.417Z,5.63
2022-12-14T09:50:00.235Z,5.60
2022-12-14T09:51:38.754Z,5.70
2022-12-14T09:53:14.399Z,5.80
2022-12-14T09:54:50.355Z,6.23
2022-12-14T09:56:22.925Z,6.20
2022-12-14T09:58:29.867Z,6.20
2022-12-14T10:00:02.483Z,6.40
2022-12-14T10:02:13.727Z,6.00
2022-12-14T10:04:02.413Z,6.10
2022-12-14T10:05:53.408Z,6.20
2022-12-14T10:07:59.500Z,6.17
2022-12-14T10:09:50.436Z,5.90
2022-12-14T10:11:34.336Z,6.03
2022-12-14T10:13:28.803Z,6.10
2022-12-14T10:15:02.067Z,6.20
2022-12-14T10:16:56.390Z,5.70
2022-12-14T10:19:01.061Z,6.17
2022-12-14T10:20:54.328Z,6.60
2022-12-14T10:22:32.252Z,6.27
2022-12-14T10:24:06.550Z,5.77
2022-12-14T10:25:40.064Z,6.70
2022-12-14T10:27:27.219Z,6.50
2022-12-14T10:29:06.730Z,6.60
2022-12-14T10:30:40.972Z,6.13
2022-12-14T10:32:32.685Z,6.17
2022-12-14T10:34:19.621Z,5.93
2022-12-14T10:36:00.361Z,6.80
2022-12-14T10:37:35.016Z,6.83
2022-12-14T10:39:31.921Z,6.20
2022-12-14T10:41:15.306Z,6.40
2022-12-14T10:43:15.106Z,5.80
2022-12-14T10:45:40.315Z,5.93
2022-12-14T10:47:23.964Z,5.50
2022-12-14T10:49:01.487Z,5.53
2022-12-14T10:50:39.006Z,6.70
2022-12-14T10:52:23.352Z,6.30
2022-12-14T10:54:34.011Z,6.70
2022-12-14T10:56:16.332Z,6.63
2022-12-14T10:57:48.051Z,6.70
2022-12-14T10:59:26.171Z,6.27
2022-12-14T11:00:57.818Z,6.10
2022-12-14T11:02:31.617Z,6.60
2022-12-14T11:04:03.670Z,6.80
2022-12-14T11:06:01.422Z,6.00
2022-12-14T11:07:33.070Z,6.70
2022-12-14T11:09:21.379Z,5.90
2022-12-14T11:11:18.586Z,5.80
2022-12-14T11:13:05.670Z,5.67
2022-12-14T11:14:37.567Z,5.77
2022-12-14T11:16:28.835Z,5.60
2022-12-14T11:18:15.956Z,5.97
2022-12-14T11:20:08.657Z,5.57
2022-12-14T11:21:40.617Z,5.77
2022-12-14T11:23:29.847Z,5.67
2022-12-14T11:25:01.489Z,6.27
2022-12-14T11:26:35.358Z,7.17
2022-12-14T11:28:45.343Z,5.83
2022-12-14T11:30:21.810Z,5.87
2022-12-14T11:31:53.651Z,5.07
2022-12-14T11:33:38.622Z,6.20
2022-12-14T11:35:17.299Z,6.20
2022-12-14T11:36:49.891Z,5.20
2022-12-14T11:38:23.808Z,5.87
2022-12-14T11:40:01.523Z,6.30
2022-12-14T11:41:47.584Z,5.37
2022-12-14T11:43:27.119Z,5.93
2022-12-14T11:45:24.655Z,5.70
2022-12-14T11:46:59.126Z,5.33
2022-12-14T11:48:31.293Z,5.97
2022-12-14T11:50:23.906Z,6.20
2022-12-14T11:51:55.514Z,6.40
2022-12-14T11:53:27.144Z,6.00
2022-12-14T11:55:01.527Z,5.43
2022-12-14T11:56:36.885Z,6.07
2022-12-14T11:58:18.735Z,5.97
2022-12-14T12:00:23.425Z,5.30
2022-12-14T12:01:56.281Z,6.10
2022-12-14T12:03:33.735Z,6.10
2022-12-14T12:05:13.600Z,5.70
2022-12-14T12:06:45.391Z,6.13
2022-12-14T12:08:24.916Z,5.83
2022-12-14T12:10:27.399Z,6.70
2022-12-14T12:11:59.223Z,6.23
2022-12-14T12:13:36.874Z,5.73
2022-12-14T12:15:17.721Z,5.83
2022-12-14T12:16:49.427Z,6.67
2022-12-14T12:18:46.467Z,6.13
2022-12-14T12:20:25.874Z,6.23
2022-12-14T12:22:01.600Z,6.83
2022-12-14T12:23:51.685Z,7.70
2022-12-14T12:25:26.932Z,6.97
2022-12-14T12:27:03.612Z,7.10
2022-12-14T12:28:38.415Z,7.03
2022-12-14T12:30:29.884Z,7.10
2022-12-14T12:32:09.572Z,6.40
2022-12-14T12:33:58.547Z,6.97
2022-12-14T12:35:54.998Z,6.80
2022-12-14T12:37:40.286Z,6.57
2022-12-14T12:39:16.314Z,7.07
2022-12-14T12:41:15.319Z,6.77
2022-12-14T12:42:53.515Z,6.40
2022-12-14T12:44:40.470Z,6.40
2022-12-14T12:46:16.702Z,6.60
2022-12-14T12:47:54.623Z,5.60
2022-12-14T12:49:26.921Z,6.07
2022-12-14T12:51:05.503Z,6.73
2022-12-14T12:52:57.794Z,7.10
2022-12-14T12:54:43.102Z,6.43
2022-12-14T12:56:20.478Z,6.80
2022-12-14T12:57:55.123Z,6.70
2022-12-14T12:59:33.628Z,6.47
2022-12-14T13:01:29.437Z,7.40
2022-12-14T13:03:24.102Z,6.30
2022-12-14T13:05:06.975Z,6.30
2022-12-14T13:07:30.467Z,7.10
2022-12-14T13:09:15.144Z,6.40
2022-12-14T13:11:24.420Z,6.30
2022-12-14T13:13:07.251Z,6.90
2022-12-14T13:14:43.427Z,6.97
2022-12-14T13:16:32.037Z,7.73
2022-12-14T13:18:56.726Z,6.53
2022-12-14T13:20:28.251Z,7.00
2022-12-14T13:22:05.159Z,7.20
2022-12-14T13:23:45.936Z,9.10
2022-12-14T13:25:25.526Z,7.30
2022-12-14T13:27:35.387Z,7.87
2022-12-14T13:29:27.386Z,7.70
2022-12-14T13:31:07.085Z,8.40
2022-12-14T13:33:02.216Z,7.90
2022-12-14T13:35:05.887Z,7.07
2022-12-14T13:36:49.263Z,15.30
2022-12-14T13:38:32.886Z,15.93
2022-12-14T13:40:40.424Z,13.67
2022-12-14T13:42:23.768Z,12.60
2022-12-14T13:44:19.542Z,12.70
2022-12-14T13:45:51.504Z,11.83
2022-12-14T13:47:29.405Z,11.67
2022-12-14T13:49:05.231Z,11.30
2022-12-14T13:50:44.490Z,10.97
2022-12-14T13:52:38.870Z,10.57
2022-12-14T13:54:37.355Z,11.33
2022-12-14T13:56:09.643Z,9.90
2022-12-14T13:57:42.719Z,10.63
2022-12-14T13:59:30.220Z,9.63
2022-12-14T14:01:14.267Z,10.17
2022-12-14T14:02:53.399Z,10.03
2022-12-14T14:04:43.818Z,9.50
2022-12-14T14:06:30.838Z,8.40
2022-12-14T14:08:29.880Z,9.13
2022-12-14T14:10:38.246Z,8.80
2022-12-14T14:12:34.772Z,8.57
2022-12-14T14:14:18.600Z,8.80
2022-12-14T14:16:27.922Z,7.80
2022-12-14T14:17:52.852Z,8.67
2022-12-14T14:19:27.028Z,8.70
2022-12-14T14:21:13.820Z,8.33
2022-12-14T14:23:15.304Z,8.83
2022-12-14T14:25:09.623Z,9.43
2022-12-14T14:26:43.416Z,8.80
2022-12-14T14:28:22.695Z,8.33
2022-12-14T14:29:56.191Z,9.20
2022-12-14T14:31:45.482Z,8.90
2022-12-14T14:33:46.486Z,8.30
2022-12-14T14:35:35.966Z,8.50
2022-12-14T14:37:35.565Z,9.97
2022-12-14T14:39:54.634Z,9.30
2022-12-14T14:41:23.913Z,8.97
2022-12-14T14:42:55.524Z,9.97
2022-12-14T14:44:50.968Z,9.90
2022-12-14T14:46:34.578Z,8.87
2022-12-14T14:48:19.821Z,8.90
2022-12-14T14:49:57.593Z,8.40
2022-12-14T14:51:35.046Z,8.50
2022-12-14T14:53:27.997Z,8.50
2022-12-14T14:55:51.324Z,8.63
2022-12-14T14:57:35.082Z,8.83
2022-12-14T14:59:18.852Z,9.10
2022-12-14T15:01:15.424Z,9.30
2022-12-14T15:02:48.237Z,9.17
2022-12-14T15:04:29.638Z,8.33
2022-12-14T15:06:01.460Z,8.70
2022-12-14T15:07:34.005Z,8.83
2022-12-14T15:09:31.358Z,9.40
2022-12-14T15:11:06.478Z,9.30
2022-12-14T15:12:41.911Z,10.20
2022-12-14T15:14:26.505Z,9.07
2022-12-14T15:15:58.462Z,9.17
2022-12-14T15:17:30.135Z,9.83
2022-12-14T15:19:29.219Z,10.00
2022-12-14T15:21:05.438Z,10.40
2022-12-14T15:22:42.201Z,11.13
2022-12-14T15:24:14.514Z,11.60
2022-12-14T15:25:46.376Z,11.27
2022-12-14T15:27:27.157Z,10.57
2022-12-14T15:29:04.417Z,11.20
2022-12-14T15:30:36.222Z,10.60
2022-12-14T15:32:13.903Z,10.40
2022-12-14T15:33:47.816Z,10.10
2022-12-14T15:35:25.312Z,10.50
2022-12-14T15:36:57.604Z,10.03
2022-12-14T15:38:32.725Z,11.07
2022-12-14T15:40:25.195Z,11.00
2022-12-14T15:42:05.760Z,10.50
2022-12-14T15:43:44.556Z,10.93
2022-12-14T15:45:22.709Z,10.87
2022-12-14T15:46:55.201Z,11.63
2022-12-14T15:48:30.870Z,11.03
2022-12-14T15:50:25.621Z,11.90
2022-12-14T15:51:58.301Z,11.63
2022-12-14T15:53:43.301Z,10.63
2022-12-14T15:55:31.016Z,11.57
2022-12-14T15:57:02.738Z,11.40
2022-12-14T15:58:37.382Z,11.17
2022-12-14T16:00:11.341Z,11.40
2022-12-14T16:01:50.016Z,10.77
2022-12-14T16:03:41.673Z,11.83
2022-12-14T16:05:17.360Z,10.93
2022-12-14T16:06:57.185Z,11.40
2022-12-14T16:08:35.065Z,11.93
2022-12-14T16:10:21.449Z,10.97
2022-12-14T16:11:56.777Z,11.67
2022-12-14T16:13:34.177Z,10.97
2022-12-14T16:15:15.749Z,12.10
2022-12-14T16:16:50.920Z,11.00
2022-12-14T16:18:22.687Z,12.20
2022-12-14T16:20:01.095Z,12.90
2022-12-14T16:21:35.362Z,12.30
2022-12-14T16:23:15.791Z,12.63
2022-12-14T16:25:16.595Z,13.03
2022-12-14T16:26:57.142Z,11.43
2022-12-14T16:28:37.385Z,12.73
2022-12-14T16:30:21.692Z,12.67
2022-12-14T16:32:02.342Z,12.27
2022-12-14T16:33:35.906Z,13.13
2022-12-14T16:35:17.919Z,12.00
2022-12-14T16:37:22.595Z,12.63
2022-12-14T16:38:58.260Z,12.73
2022-12-14T16:40:39.863Z,12.30
2022-12-14T16:42:31.217Z,13.10
2022-12-14T16:44:05.756Z,12.53
2022-12-14T16:45:43.332Z,12.83
2022-12-14T16:47:14.935Z,12.87
2022-12-14T16:49:09.363Z,13.67
2022-12-14T16:50:56.336Z,14.37
2022-12-14T16:52:35.352Z,13.50
2022-12-14T16:54:23.088Z,13.40
2022-12-14T16:56:05.118Z,13.50
2022-12-14T16:57:40.436Z,13.23
2022-12-14T16:59:23.027Z,12.87
2022-12-14T17:01:06.943Z,12.87
2022-12-14T17:02:46.701Z,11.30
2022-12-14T17:04:19.864Z,12.20
2022-12-14T17:05:59.645Z,11.70
2022-12-14T17:07:33.069Z,11.83
2022-12-14T17:09:05.460Z,11.70
2022-12-14T17:10:38.681Z,11.30
2022-12-14T17:12:14.437Z,11.53
2022-12-14T17:13:46.140Z,11.47
2022-12-14T17:15:23.681Z,11.57
2022-12-14T17:17:03.757Z,12.03
2022-12-14T17:18:40.791Z,11.47
2022-12-14T17:20:22.135Z,12.30
2022-12-14T17:21:53.776Z,11.73
2022-12-14T17:23:25.789Z,11.53
2022-12-14T17:24:59.190Z,12.33
2022-12-14T17:26:32.576Z,12.40
2022-12-14T17:28:10.577Z,11.43
2022-12-14T17:29:42.488Z,12.00
2022-12-14T17:31:15.434Z,11.00
2022-12-14T17:32:48.296Z,12.37
2022-12-14T17:34:20.161Z,12.90
2022-12-14T17:35:51.955Z,14.57
2022-12-14T17:37:24.924Z,14.73
2022-12-14T17:38:56.527Z,14.53
2022-12-14T17:40:28.331Z,15.50
2022-12-14T17:42:00.131Z,15.20
2022-12-14T17:43:32.102Z,15.00
2022-12-14T17:45:04.565Z,16.57
2022-12-14T17:46:36.293Z,15.57
2022-12-14T17:48:15.639Z,16.97
2022-12-14T17:49:47.272Z,15.47
2022-12-14T17:51:25.407Z,15.40
2022-12-14T17:52:57.063Z,14.00
2022-12-14T17:54:29.289Z,14.90
2022-12-14T17:56:01.004Z,14.77
2022-12-14T17:57:32.905Z,13.13
2022-12-14T17:59:04.535Z,14.27
2022-12-14T18:00:55.564Z,13.10
2022-12-14T18:02:35.689Z,13.80
2022-12-14T18:04:07.936Z,13.80
2022-12-14T18:05:48.162Z,14.03
2022-12-14T18:07:20.484Z,14.33
2022-12-14T18:08:52.158Z,14.97
2022-12-14T18:10:24.308Z,14.00
2022-12-14T18:12:22.213Z,15.00
2022-12-14T18:13:48.961Z,13.83
2022-12-14T18:15:22.252Z,14.60
2022-12-14T18:16:55.488Z,14.70
2022-12-14T18:18:29.281Z,12.83
2022-12-14T18:20:00.925Z,12.97
2022-12-14T18:21:32.733Z,13.57
2022-12-14T18:23:04.388Z,13.87
2022-12-14T18:24:36.028Z,14.03
2022-12-14T18:26:07.742Z,14.43
2022-12-14T18:27:39.417Z,14.80
2022-12-14T18:29:11.081Z,14.27
2022-12-14T18:30:49.587Z,15.23
2022-12-14T18:32:21.597Z,15.50
2022-12-14T18:33:53.265Z,14.83
2022-12-14T18:35:28.592Z,14.90
2022-12-14T18:37:00.216Z,14.60
2022-12-14T18:38:31.863Z,16.13
2022-12-14T18:40:03.822Z,16.47
2022-12-14T18:41:35.605Z,15.50
2022-12-14T18:43:09.322Z,15.03
2022-12-14T18:44:41.247Z,15.27
2022-12-14T18:46:12.929Z,15.60
2022-12-14T18:47:45.260Z,15.27
2022-12-14T18:49:16.899Z,16.20
2022-12-14T18:50:49.937Z,15.90
2022-12-14T18:52:21.871Z,16.30
2022-12-14T18:53:55.017Z,16.90
2022-12-14T18:55:29.597Z,16.03
2022-12-14T18:57:01.356Z,17.37
2022-12-14T18:58:33.093Z,16.13
2022-12-14T19:00:05.868Z,16.33
2022-12-14T19:01:39.151Z,15.90
2022-12-14T19:03:11.184Z,15.80
2022-12-14T19:04:48.949Z,16.00
2022-12-14T19:08:14.706Z,15.30
2022-12-14T19:09:46.669Z,14.80
2022-12-14T19:11:35.345Z,16.03
2022-12-14T19:13:09.485Z,15.20
2022-12-14T19:14:41.188Z,14.97
2022-12-14T19:16:13.248Z,14.50
2022-12-14T19:17:45.327Z,14.87
2022-12-14T19:19:19.917Z,13.70
2022-12-14T19:20:54.482Z,14.97
2022-12-14T19:22:29.187Z,14.40
2022-12-14T19:24:00.999Z,13.53
2022-12-14T19:25:32.780Z,13.83
2022-12-14T19:27:05.958Z,13.70
2022-12-14T19:28:38.121Z,14.00
2022-12-14T19:30:13.954Z,13.53
2022-12-14T19:31:45.731Z,13.47
2022-12-14T19:33:17.726Z,13.60
2022-12-14T19:34:49.443Z,14.10
2022-12-14T19:36:21.094Z,13.47
2022-12-14T19:37:52.895Z,14.03
2022-12-14T19:39:24.559Z,13.17
2022-12-14T19:41:00.538Z,13.57
2022-12-14T19:42:32.457Z,13.33
2022-12-14T19:44:04.296Z,13.13
2022-12-14T19:45:37.624Z,13.13
2022-12-14T19:47:09.711Z,13.37
2022-12-14T19:48:42.121Z,14.17
2022-12-14T19:50:15.385Z,14.10
2022-12-14T19:51:47.031Z,12.80
2022-12-14T19:53:23.496Z,12.60
2022-12-14T19:54:55.738Z,12.83
2022-12-14T19:56:27.342Z,12.10
2022-12-14T19:57:58.934Z,14.00
2022-12-14T19:59:30.575Z,13.03
2022-12-14T20:01:06.773Z,12.70
2022-12-14T20:02:38.755Z,12.77
2022-12-14T20:04:10.749Z,12.10
2022-12-14T20:05:52.943Z,12.10
2022-12-14T20:07:24.648Z,11.30
2022-12-14T20:09:01.404Z,12.17
2022-12-14T20:10:33.048Z,11.83
2022-12-14T20:12:05.067Z,12.70
2022-12-14T20:13:36.753Z,12.00
2022-12-14T20:15:08.684Z,12.13
2022-12-14T20:16:40.706Z,11.83
2022-12-14T20:18:12.401Z,12.43
2022-12-14T20:19:44.172Z,12.83
2022-12-14T20:21:21.932Z,12.03
2022-12-14T20:22:54.062Z,12.03
2022-12-14T20:24:25.715Z,12.00
2022-12-14T20:26:01.681Z,12.50
2022-12-14T20:27:38.854Z,11.43
2022-12-14T20:29:12.210Z,11.67
2022-12-14T20:30:45.533Z,12.17
2022-12-14T20:32:17.166Z,13.23
2022-12-14T20:33:49.732Z,11.50
2022-12-14T20:35:21.374Z,12.20
2022-12-14T20:36:53.057Z,12.30
2022-12-14T20:38:24.769Z,12.17
2022-12-14T20:39:56.400Z,12.67
2022-12-14T20:41:29.184Z,12.20
2022-12-14T20:43:00.900Z,12.30
2022-12-14T20:44:32.545Z,13.40
2022-12-14T20:46:05.432Z,13.27
2022-12-14T20:47:37.066Z,13.00
2022-12-14T20:49:17.950Z,13.70
2022-12-14T20:50:52.029Z,12.37
2022-12-14T20:52:26.656Z,13.87
2022-12-14T20:53:58.592Z,14.40
2022-12-14T20:55:30.403Z,14.37
2022-12-14T20:57:02.026Z,14.13
2022-12-14T20:58:33.650Z,14.10
2022-12-14T21:00:06.448Z,14.70
2022-12-14T21:01:39.853Z,13.83
2022-12-14T21:03:11.653Z,13.57
2022-12-14T21:04:43.405Z,14.73
2022-12-14T21:06:18.059Z,13.93
2022-12-14T21:07:49.757Z,14.00
2022-12-14T21:09:21.440Z,14.80
2022-12-14T21:11:23.078Z,13.87
2022-12-14T21:12:54.718Z,13.40
2022-12-14T21:14:32.335Z,13.80
2022-12-14T21:16:09.509Z,14.27
2022-12-14T21:17:41.210Z,13.67
2022-12-14T21:19:13.779Z,13.20
2022-12-14T21:20:45.373Z,13.53
2022-12-14T21:22:23.896Z,14.20
2022-12-14T21:23:55.663Z,14.60
2022-12-14T21:25:27.502Z,13.47
2022-12-14T21:26:59.124Z,13.60
2022-12-14T21:28:32.411Z,13.00
2022-12-14T21:30:05.995Z,13.00
2022-12-14T21:31:39.775Z,13.80
2022-12-14T21:33:11.451Z,14.03
2022-12-14T21:34:43.400Z,13.17
2022-12-14T21:36:15.037Z,12.57
2022-12-14T21:37:46.736Z,12.33
2022-12-14T21:39:19.373Z,13.73